やるねぇぇ!!!

LUXURY FLIGHT

03-6423-7371

羽田本店:東京都大田区羽田5-11-1
営業時間:10:00~20:00
定休日:毎週 月曜日
セントレア店:愛知県常滑市セントレア1-1
営業時間:10:00~20:00 年中無休

lv

やるねぇぇ!!!

STAFF BLOG

2019/07/13 やるねぇぇ!!!

おはざす!!!

 

RJGG 130000Z 30003KT 9999 -SHRA FEW020 BKN160 BKN/// 25/20 Q1004 BECMG 24005KT

セントレアの本日の天候は・・・・

まぁまぁ梅雨ですね!!

 

 

さて、本日は スーパーキッズの「PFD]をご紹介!!!

 

スーパー恥ずかしがり屋さんな「某サッカーアニメの主人公」風な彼

 

こまかーく修正出来ないときはもちろんありますが,やっていくにつれてビッタビタに

 

子供の純粋さには毎回驚かされます

 

%e7%84%a1%e9%a1%8c

240KT/6000FT!

 

スラストもマニュアル!FDもなし!まさにRAW DATE

 

やるねえー!!!!

 

将来の夢はプロ野球選手なんですって

 

この細かい修正が出来ればバッティング・ピッチングで悩んでもすぐ治せそうですね

 

もし今日の体験からパイロットも目指したい!なーんてなってくれてたら尚嬉しい限りです

 

 

ご来店ありがとうございました

 

 

「感謝」

TOP